TimeEST,TemperatureF,Dew PointF,Humidity,Sea Level PressureIn,VisibilityMPH,Wind Direction,Wind SpeedMPH,Gust SpeedMPH,PrecipitationIn,Events,Conditions,WindDirDegrees,DateUTC
12:53 AM,8.1,-2.9,61,29.91,10.0,South,3.5,-,N/A,,Clear,190,2013-01-04 05:53:00
1:53 AM,6.1,-2.0,69,29.89,10.0,SSW,3.5,-,N/A,,Partly Cloudy,200,2013-01-04 06:53:00
2:53 AM,7.0,-4.0,61,29.89,10.0,SW,4.6,-,N/A,,Clear,220,2013-01-04 07:53:00
3:53 AM,8.1,-2.0,64,29.87,10.0,SSW,3.5,-,N/A,,Clear,210,2013-01-04 08:53:00
4:53 AM,7.0,-0.9,70,29.86,10.0,SSW,4.6,-,N/A,,Clear,200,2013-01-04 09:53:00
5:53 AM,5.0,-0.9,76,29.86,10.0,South,3.5,-,N/A,,Clear,170,2013-01-04 10:53:00
6:53 AM,5.0,-0.0,80,29.88,10.0,Calm,Calm,-,N/A,,Scattered Clouds,0,2013-01-04 11:53:00
7:53 AM,7.0,1.0,77,29.86,9.0,South,4.6,-,N/A,,Overcast,190,2013-01-04 12:53:00
8:53 AM,12.0,5.0,73,29.84,8.0,SSW,4.6,-,N/A,,Overcast,200,2013-01-04 13:53:00
9:53 AM,14.0,7.0,74,29.83,9.0,South,6.9,-,N/A,,Mostly Cloudy,190,2013-01-04 14:53:00
10:53 AM,16.0,9.0,74,29.80,10.0,South,5.8,-,N/A,,Scattered Clouds,190,2013-01-04 15:53:00
11:53 AM,19.9,12.0,71,29.76,10.0,South,4.6,-,N/A,,Scattered Clouds,190,2013-01-04 16:53:00
12:53 PM,24.1,16.0,71,29.72,10.0,SSW,6.9,-,N/A,,Partly Cloudy,200,2013-01-04 17:53:00
1:53 PM,26.1,17.1,69,29.72,10.0,Variable,3.5,-,N/A,,Overcast,0,2013-01-04 18:53:00
2:53 PM,30.9,19.9,64,29.70,10.0,SSW,6.9,-,N/A,,Clear,210,2013-01-04 19:53:00
3:53 PM,30.9,19.0,61,29.70,10.0,SW,6.9,-,N/A,,Clear,220,2013-01-04 20:53:00
4:53 PM,28.9,18.0,64,29.71,10.0,SSW,4.6,-,N/A,,Clear,200,2013-01-04 21:53:00
5:53 PM,25.0,18.0,75,29.71,10.0,South,4.6,-,N/A,,Scattered Clouds,180,2013-01-04 22:53:00
6:53 PM,25.0,18.0,75,29.72,10.0,SSW,5.8,-,N/A,,Mostly Cloudy,200,2013-01-04 23:53:00
7:53 PM,26.1,18.0,71,29.73,10.0,SW,5.8,-,N/A,,Overcast,220,2013-01-05 00:53:00
8:53 PM,27.0,19.0,72,29.72,10.0,South,5.8,-,N/A,,Overcast,190,2013-01-05 01:53:00
9:53 PM,28.0,19.9,72,29.73,10.0,SSW,5.8,-,N/A,,Overcast,210,2013-01-05 02:53:00
10:53 PM,28.9,21.0,72,29.73,10.0,SSW,5.8,-,N/A,,Overcast,210,2013-01-05 03:53:00
11:53 PM,30.0,21.0,69,29.71,10.0,SW,4.6,-,N/A,,Overcast,220,2013-01-05 04:53:00